createdAt,value
2022-11-09T00:00:30.503Z,1.23
2022-11-09T00:06:10.265Z,1.40
2022-11-09T00:11:32.448Z,1.35
2022-11-09T00:16:59.662Z,1.20
2022-11-09T00:22:38.018Z,1.20
2022-11-09T00:28:01.545Z,1.17
2022-11-09T00:33:23.488Z,1.50
2022-11-09T00:38:51.686Z,1.17
2022-11-09T00:44:14.224Z,1.45
2022-11-09T00:49:41.957Z,1.50
2022-11-09T00:55:08.428Z,1.20
2022-11-09T01:00:31.476Z,1.20
2022-11-09T01:06:05.836Z,1.60
2022-11-09T01:11:31.872Z,1.60
2022-11-09T01:16:56.203Z,1.48
2022-11-09T01:22:29.141Z,1.50
2022-11-09T01:27:55.273Z,1.48
2022-11-09T01:33:27.086Z,1.90
2022-11-09T01:38:56.566Z,1.48
2022-11-09T01:44:24.907Z,1.30
2022-11-09T01:49:52.302Z,1.50
2022-11-09T01:55:19.941Z,1.58
2022-11-09T02:00:51.231Z,1.30
2022-11-09T02:06:23.055Z,1.63
2022-11-09T02:11:45.914Z,1.40
2022-11-09T02:17:36.250Z,1.50
2022-11-09T02:23:08.561Z,1.48
2022-11-09T02:28:35.770Z,1.67
2022-11-09T02:34:06.780Z,1.48
2022-11-09T02:39:49.556Z,1.45
2022-11-09T02:45:18.500Z,1.67
2022-11-09T02:51:04.562Z,1.27
2022-11-09T02:56:32.404Z,2.00
2022-11-09T03:02:18.740Z,1.50
2022-11-09T03:07:48.471Z,1.60
2022-11-09T03:19:18.902Z,1.40
2022-11-09T03:25:15.813Z,1.50
2022-11-09T03:31:10.575Z,1.40
2022-11-09T03:36:45.021Z,1.45
2022-11-09T03:42:09.200Z,1.38
2022-11-09T03:47:44.211Z,1.40
2022-11-09T03:53:15.244Z,1.50
2022-11-09T03:59:07.104Z,1.40
2022-11-09T04:04:43.076Z,1.75
2022-11-09T04:10:16.167Z,1.38
2022-11-09T04:15:43.412Z,2.00
2022-11-09T04:21:27.264Z,1.50
2022-11-09T04:26:58.116Z,1.80
2022-11-09T04:32:40.590Z,1.48
2022-11-09T04:38:09.549Z,1.60
2022-11-09T04:43:33.661Z,1.63
2022-11-09T04:49:06.010Z,1.58
2022-11-09T04:54:48.831Z,1.38
2022-11-09T05:00:13.577Z,1.85
2022-11-09T05:11:19.508Z,1.50
2022-11-09T05:16:45.134Z,1.60
2022-11-09T05:22:56.507Z,1.60
2022-11-09T05:28:32.411Z,1.63
2022-11-09T05:34:20.428Z,1.73
2022-11-09T05:39:45.230Z,1.48
2022-11-09T05:45:41.036Z,1.50
2022-11-09T05:50:58.724Z,1.83
2022-11-09T05:56:23.680Z,1.40
2022-11-09T06:01:49.887Z,1.60
2022-11-09T06:07:14.807Z,1.60
2022-11-09T06:12:46.400Z,1.60
2022-11-09T06:18:12.648Z,1.83
2022-11-09T06:23:38.263Z,1.83
2022-11-09T06:29:09.068Z,2.00
2022-11-09T06:34:37.858Z,1.65
2022-11-09T06:40:30.846Z,1.95
2022-11-09T06:52:41.611Z,1.80
2022-11-09T06:58:23.915Z,2.15
2022-11-09T07:04:05.697Z,1.90
2022-11-09T07:09:32.883Z,1.70
2022-11-09T07:15:11.413Z,1.67
2022-11-09T07:20:36.263Z,1.88
2022-11-09T07:26:03.498Z,2.47
2022-11-09T07:31:37.789Z,2.20
2022-11-09T07:37:16.314Z,1.92
2022-11-09T07:42:40.974Z,1.60
2022-11-09T07:53:46.593Z,2.22
2022-11-09T07:59:16.730Z,1.80
2022-11-09T08:04:41.219Z,1.70
2022-11-09T08:10:04.611Z,1.90
2022-11-09T08:15:37.170Z,1.95
2022-11-09T08:21:16.787Z,2.30
2022-11-09T08:26:49.602Z,1.70
2022-11-09T08:32:16.133Z,1.60
2022-11-09T08:37:48.168Z,1.80
2022-11-09T08:43:20.438Z,2.85
2022-11-09T08:48:44.532Z,2.97
2022-11-09T08:54:15.262Z,2.22
2022-11-09T08:59:46.221Z,1.95
2022-11-09T09:05:22.613Z,2.47
2022-11-09T09:10:56.540Z,1.77
2022-11-09T09:16:24.553Z,1.80
2022-11-09T09:21:49.697Z,1.77
2022-11-09T09:27:18.301Z,2.00
2022-11-09T09:32:42.926Z,1.90
2022-11-09T09:38:08.114Z,1.88
2022-11-09T09:43:43.023Z,1.80
2022-11-09T09:49:11.528Z,1.80
2022-11-09T09:54:46.190Z,1.77
2022-11-09T10:00:21.904Z,1.75
2022-11-09T10:05:59.259Z,1.75
2022-11-09T10:11:35.592Z,1.60
2022-11-09T10:17:10.550Z,1.80
2022-11-09T10:22:49.778Z,1.92
2022-11-09T10:28:16.299Z,1.70
2022-11-09T10:33:47.889Z,1.60
2022-11-09T10:39:23.697Z,1.55
2022-11-09T10:44:50.462Z,1.60
2022-11-09T10:50:31.452Z,1.38
2022-11-09T10:56:03.381Z,2.00
2022-11-09T11:01:28.307Z,1.33
2022-11-09T11:06:54.018Z,1.30
2022-11-09T11:12:27.389Z,1.40
2022-11-09T11:18:17.983Z,1.45
2022-11-09T11:23:48.848Z,1.30
2022-11-09T11:29:23.383Z,1.10
2022-11-09T11:35:00.281Z,1.33
2022-11-09T11:46:22.683Z,1.02
2022-11-09T11:52:01.876Z,1.20
2022-11-09T11:57:43.001Z,1.10
2022-11-09T12:03:40.744Z,1.38
2022-11-09T12:09:30.601Z,1.10
2022-11-09T12:21:15.061Z,1.20
2022-11-09T12:27:18.283Z,0.82
2022-11-09T12:32:59.028Z,1.00
2022-11-09T12:38:40.730Z,1.20
2022-11-09T12:44:19.374Z,1.00
2022-11-09T12:49:50.275Z,0.80
2022-11-09T12:55:16.762Z,1.00
2022-11-09T13:00:52.399Z,0.73
2022-11-09T13:06:31.561Z,0.70
2022-11-09T13:11:56.750Z,0.85
2022-11-09T13:18:03.199Z,0.93
2022-11-09T13:29:26.907Z,0.77
2022-11-09T13:34:53.436Z,0.90
2022-11-09T13:40:54.969Z,0.85
2022-11-09T13:46:34.873Z,0.70
2022-11-09T13:51:59.237Z,0.60
2022-11-09T13:57:25.078Z,0.70
2022-11-09T14:02:59.431Z,0.60
2022-11-09T14:08:25.589Z,0.98
2022-11-09T14:14:06.351Z,0.65
2022-11-09T14:19:42.585Z,0.75
2022-11-09T14:25:16.823Z,0.75
2022-11-09T14:30:47.564Z,0.90
2022-11-09T14:36:19.242Z,0.60
2022-11-09T14:41:46.771Z,0.75
2022-11-09T14:47:18.887Z,0.85
2022-11-09T14:52:57.622Z,0.88
2022-11-09T14:58:22.755Z,0.90
2022-11-09T15:03:46.491Z,0.60
2022-11-09T15:09:18.757Z,0.70
2022-11-09T15:14:45.284Z,0.50
2022-11-09T15:20:33.020Z,1.00
2022-11-09T15:25:59.828Z,1.00
2022-11-09T15:31:29.555Z,0.82
2022-11-09T15:36:57.726Z,0.95
2022-11-09T15:42:25.858Z,0.80
2022-11-09T15:47:56.674Z,1.27
2022-11-09T15:53:34.622Z,1.45
2022-11-09T15:59:04.814Z,1.10
2022-11-09T16:04:29.323Z,1.23
2022-11-09T16:15:53.607Z,1.17
2022-11-09T16:21:18.719Z,1.40
2022-11-09T16:26:43.154Z,1.17
2022-11-09T16:32:09.690Z,1.40
2022-11-09T16:37:38.200Z,1.58
2022-11-09T16:43:03.614Z,1.38
2022-11-09T16:48:28.530Z,1.30
2022-11-09T16:53:52.636Z,1.17
2022-11-09T16:59:20.475Z,1.10
2022-11-09T17:04:50.540Z,1.00
2022-11-09T17:10:19.287Z,1.02
2022-11-09T17:15:44.794Z,1.30
2022-11-09T17:21:20.187Z,1.58
2022-11-09T17:26:51.853Z,1.27
2022-11-09T17:32:19.244Z,1.38
2022-11-09T17:37:55.209Z,1.40
2022-11-09T17:43:20.564Z,2.22
2022-11-09T17:48:46.674Z,1.65
2022-11-09T17:54:15.192Z,1.60
2022-11-09T17:59:38.643Z,1.92
2022-11-09T18:05:06.604Z,2.78
2022-11-09T18:10:31.573Z,6.85
2022-11-09T18:15:55.298Z,5.13
2022-11-09T18:21:20.399Z,4.82
2022-11-09T18:26:48.837Z,4.97
2022-11-09T18:32:14.355Z,4.10
2022-11-09T18:37:52.340Z,2.50
2022-11-09T18:43:37.604Z,1.77
2022-11-09T18:49:14.268Z,2.30
2022-11-09T18:54:38.067Z,1.98
2022-11-09T19:00:07.134Z,1.85
2022-11-09T19:05:32.052Z,2.10
2022-11-09T19:11:03.453Z,1.70
2022-11-09T19:16:38.792Z,2.03
2022-11-09T19:22:02.239Z,1.80
2022-11-09T19:27:36.761Z,1.40
2022-11-09T19:33:06.896Z,1.65
2022-11-09T19:38:31.165Z,1.90
2022-11-09T19:44:02.772Z,2.25
2022-11-09T19:49:31.849Z,1.63
2022-11-09T20:00:45.384Z,1.55
2022-11-09T20:06:28.787Z,1.60
2022-11-09T20:12:10.030Z,1.58
2022-11-09T20:17:41.613Z,1.95
2022-11-09T20:23:07.630Z,1.67
2022-11-09T20:28:34.926Z,1.88
2022-11-09T20:34:11.704Z,1.60
2022-11-09T20:39:44.145Z,1.83
2022-11-09T20:45:12.081Z,1.40
2022-11-09T20:50:46.453Z,2.15
2022-11-09T21:01:59.409Z,2.72
2022-11-09T21:13:27.330Z,1.60
2022-11-09T21:19:06.170Z,1.80
2022-11-09T21:24:47.891Z,1.88
2022-11-09T21:30:20.680Z,1.88
2022-11-09T21:35:51.875Z,1.92
2022-11-09T21:41:29.999Z,1.70
2022-11-09T21:46:54.584Z,1.70
2022-11-09T21:52:21.475Z,1.70
2022-11-09T21:57:47.197Z,1.77
2022-11-09T22:03:16.626Z,1.77
2022-11-09T22:08:40.841Z,1.88
2022-11-09T22:14:21.678Z,1.63
2022-11-09T22:20:03.526Z,1.73
2022-11-09T22:25:36.744Z,1.85
2022-11-09T22:31:10.053Z,1.42
2022-11-09T22:36:43.010Z,1.35
2022-11-09T22:42:06.391Z,1.23
2022-11-09T22:47:34.968Z,1.10
2022-11-09T22:53:28.277Z,1.35
2022-11-09T22:58:54.992Z,1.17
2022-11-09T23:04:22.095Z,1.23
2022-11-09T23:10:03.452Z,1.42
2022-11-09T23:15:27.101Z,1.40
2022-11-09T23:20:50.177Z,1.20
2022-11-09T23:26:21.308Z,1.00
2022-11-09T23:31:58.272Z,1.60
2022-11-09T23:37:33.015Z,1.48
2022-11-09T23:43:05.136Z,1.27
2022-11-09T23:48:39.829Z,1.02
2022-11-09T23:54:05.143Z,1.02
2022-11-09T23:59:34.740Z,1.30
